sensor_id;sensor_type;location;lat;lon;timestamp;P1;durP1;ratioP1;P2;durP2;ratioP2
46318;SDS011;32042;50.916;2.926;2023-03-12T00:02:07;4.03;;;2.83;;
46318;SDS011;32042;50.916;2.926;2023-03-12T00:04:32;7.83;;;3.00;;
46318;SDS011;32042;50.916;2.926;2023-03-12T00:07:00;5.60;;;2.87;;
46318;SDS011;32042;50.916;2.926;2023-03-12T00:09:27;7.37;;;3.17;;
46318;SDS011;32042;50.916;2.926;2023-03-12T00:11:53;5.60;;;3.17;;
46318;SDS011;32042;50.916;2.926;2023-03-12T00:14:18;7.10;;;3.43;;
46318;SDS011;32042;50.916;2.926;2023-03-12T00:16:44;4.37;;;2.77;;
46318;SDS011;32042;50.916;2.926;2023-03-12T00:19:11;3.53;;;3.17;;
46318;SDS011;32042;50.916;2.926;2023-03-12T00:21:37;4.47;;;2.67;;
46318;SDS011;32042;50.916;2.926;2023-03-12T00:24:03;5.03;;;2.90;;
46318;SDS011;32042;50.916;2.926;2023-03-12T00:26:29;10.07;;;3.40;;
46318;SDS011;32042;50.916;2.926;2023-03-12T00:28:55;5.43;;;3.07;;
46318;SDS011;32042;50.916;2.926;2023-03-12T00:31:22;5.50;;;3.80;;
46318;SDS011;32042;50.916;2.926;2023-03-12T00:33:53;5.67;;;3.20;;
46318;SDS011;32042;50.916;2.926;2023-03-12T00:36:20;7.33;;;3.37;;
46318;SDS011;32042;50.916;2.926;2023-03-12T00:38:49;6.93;;;3.33;;
46318;SDS011;32042;50.916;2.926;2023-03-12T00:41:15;5.17;;;3.27;;
46318;SDS011;32042;50.916;2.926;2023-03-12T00:43:43;5.87;;;3.50;;
46318;SDS011;32042;50.916;2.926;2023-03-12T00:46:13;4.87;;;3.07;;
46318;SDS011;32042;50.916;2.926;2023-03-12T00:48:39;6.33;;;3.23;;
46318;SDS011;32042;50.916;2.926;2023-03-12T00:51:05;4.03;;;3.13;;
46318;SDS011;32042;50.916;2.926;2023-03-12T00:53:31;3.43;;;3.13;;
46318;SDS011;32042;50.916;2.926;2023-03-12T00:55:57;7.03;;;3.60;;
46318;SDS011;32042;50.916;2.926;2023-03-12T00:58:22;7.00;;;3.53;;
46318;SDS011;32042;50.916;2.926;2023-03-12T01:00:48;6.77;;;3.93;;
46318;SDS011;32042;50.916;2.926;2023-03-12T01:03:14;6.77;;;3.53;;
46318;SDS011;32042;50.916;2.926;2023-03-12T01:05:40;4.17;;;3.53;;
46318;SDS011;32042;50.916;2.926;2023-03-12T01:08:06;8.13;;;3.57;;
46318;SDS011;32042;50.916;2.926;2023-03-12T01:10:33;3.87;;;3.40;;
46318;SDS011;32042;50.916;2.926;2023-03-12T01:12:59;5.80;;;3.30;;
46318;SDS011;32042;50.916;2.926;2023-03-12T01:15:24;5.77;;;3.60;;
46318;SDS011;32042;50.916;2.926;2023-03-12T01:17:50;4.40;;;3.67;;
46318;SDS011;32042;50.916;2.926;2023-03-12T01:20:16;6.83;;;3.57;;
46318;SDS011;32042;50.916;2.926;2023-03-12T01:22:42;4.57;;;3.83;;
46318;SDS011;32042;50.916;2.926;2023-03-12T01:25:08;7.53;;;3.70;;
46318;SDS011;32042;50.916;2.926;2023-03-12T01:27:34;5.80;;;3.93;;
46318;SDS011;32042;50.916;2.926;2023-03-12T01:30:00;3.73;;;3.43;;
46318;SDS011;32042;50.916;2.926;2023-03-12T01:32:26;7.30;;;3.80;;
46318;SDS011;32042;50.916;2.926;2023-03-12T01:34:51;7.73;;;3.67;;
46318;SDS011;32042;50.916;2.926;2023-03-12T01:37:17;5.03;;;3.77;;
46318;SDS011;32042;50.916;2.926;2023-03-12T01:39:43;5.87;;;3.57;;
46318;SDS011;32042;50.916;2.926;2023-03-12T01:42:08;7.53;;;3.80;;
46318;SDS011;32042;50.916;2.926;2023-03-12T01:44:56;5.00;;;4.10;;
46318;SDS011;32042;50.916;2.926;2023-03-12T01:47:22;4.40;;;3.80;;
46318;SDS011;32042;50.916;2.926;2023-03-12T01:49:49;5.00;;;3.67;;
46318;SDS011;32042;50.916;2.926;2023-03-12T01:55:00;7.13;;;3.60;;
46318;SDS011;32042;50.916;2.926;2023-03-12T01:57:33;5.43;;;4.00;;
46318;SDS011;32042;50.916;2.926;2023-03-12T02:00:23;4.53;;;4.03;;
46318;SDS011;32042;50.916;2.926;2023-03-12T02:02:50;4.87;;;4.33;;
46318;SDS011;32042;50.916;2.926;2023-03-12T02:07:53;6.13;;;4.57;;
46318;SDS011;32042;50.916;2.926;2023-03-12T02:10:20;5.43;;;4.13;;
46318;SDS011;32042;50.916;2.926;2023-03-12T02:12:46;6.03;;;4.47;;
46318;SDS011;32042;50.916;2.926;2023-03-12T02:15:12;8.20;;;4.77;;
46318;SDS011;32042;50.916;2.926;2023-03-12T02:17:38;8.03;;;4.47;;
46318;SDS011;32042;50.916;2.926;2023-03-12T02:23:04;5.20;;;4.70;;
46318;SDS011;32042;50.916;2.926;2023-03-12T02:25:37;8.77;;;4.87;;
46318;SDS011;32042;50.916;2.926;2023-03-12T02:28:08;10.13;;;5.37;;
46318;SDS011;32042;50.916;2.926;2023-03-12T02:30:38;6.60;;;4.97;;
46318;SDS011;32042;50.916;2.926;2023-03-12T02:33:10;6.60;;;5.47;;
46318;SDS011;32042;50.916;2.926;2023-03-12T02:35:39;6.10;;;5.40;;
46318;SDS011;32042;50.916;2.926;2023-03-12T02:40:59;10.00;;;5.97;;
46318;SDS011;32042;50.916;2.926;2023-03-12T02:43:34;9.43;;;6.53;;
46318;SDS011;32042;50.916;2.926;2023-03-12T02:46:01;8.50;;;7.07;;
46318;SDS011;32042;50.916;2.926;2023-03-12T02:48:27;7.80;;;6.63;;
46318;SDS011;32042;50.916;2.926;2023-03-12T02:50:54;8.73;;;7.40;;
46318;SDS011;32042;50.916;2.926;2023-03-12T02:53:20;12.30;;;7.40;;
46318;SDS011;32042;50.916;2.926;2023-03-12T02:55:46;9.90;;;7.13;;
46318;SDS011;32042;50.916;2.926;2023-03-12T02:58:11;8.43;;;7.63;;
46318;SDS011;32042;50.916;2.926;2023-03-12T03:00:37;9.87;;;8.17;;
46318;SDS011;32042;50.916;2.926;2023-03-12T03:03:03;10.03;;;9.03;;
46318;SDS011;32042;50.916;2.926;2023-03-12T03:05:28;11.43;;;8.33;;
46318;SDS011;32042;50.916;2.926;2023-03-12T03:07:54;8.93;;;7.90;;
46318;SDS011;32042;50.916;2.926;2023-03-12T03:10:20;8.90;;;8.10;;
46318;SDS011;32042;50.916;2.926;2023-03-12T03:12:45;9.20;;;8.30;;
46318;SDS011;32042;50.916;2.926;2023-03-12T03:15:11;9.70;;;8.70;;
46318;SDS011;32042;50.916;2.926;2023-03-12T03:17:37;9.00;;;8.13;;
46318;SDS011;32042;50.916;2.926;2023-03-12T03:20:03;11.87;;;9.50;;
46318;SDS011;32042;50.916;2.926;2023-03-12T03:22:33;10.73;;;8.87;;
46318;SDS011;32042;50.916;2.926;2023-03-12T03:24:58;9.17;;;8.27;;
46318;SDS011;32042;50.916;2.926;2023-03-12T03:27:24;9.47;;;8.40;;
46318;SDS011;32042;50.916;2.926;2023-03-12T03:29:50;9.60;;;8.57;;
46318;SDS011;32042;50.916;2.926;2023-03-12T03:32:15;9.47;;;8.43;;
46318;SDS011;32042;50.916;2.926;2023-03-12T03:34:41;8.90;;;8.07;;
46318;SDS011;32042;50.916;2.926;2023-03-12T03:37:07;10.87;;;8.43;;
46318;SDS011;32042;50.916;2.926;2023-03-12T03:39:32;12.63;;;9.30;;
46318;SDS011;32042;50.916;2.926;2023-03-12T03:41:58;13.83;;;9.33;;
46318;SDS011;32042;50.916;2.926;2023-03-12T03:44:24;13.63;;;9.33;;
46318;SDS011;32042;50.916;2.926;2023-03-12T03:46:50;11.40;;;9.30;;
46318;SDS011;32042;50.916;2.926;2023-03-12T03:49:17;11.83;;;9.30;;
46318;SDS011;32042;50.916;2.926;2023-03-12T03:51:43;10.10;;;9.17;;
46318;SDS011;32042;50.916;2.926;2023-03-12T03:54:09;11.67;;;9.37;;
46318;SDS011;32042;50.916;2.926;2023-03-12T03:56:35;12.60;;;9.70;;
46318;SDS011;32042;50.916;2.926;2023-03-12T03:59:00;12.87;;;10.13;;
46318;SDS011;32042;50.916;2.926;2023-03-12T04:01:27;16.30;;;10.23;;
46318;SDS011;32042;50.916;2.926;2023-03-12T04:03:53;14.00;;;10.37;;
46318;SDS011;32042;50.916;2.926;2023-03-12T04:06:18;10.73;;;9.63;;
46318;SDS011;32042;50.916;2.926;2023-03-12T04:08:44;11.80;;;10.40;;
46318;SDS011;32042;50.916;2.926;2023-03-12T04:11:11;15.77;;;10.67;;
46318;SDS011;32042;50.916;2.926;2023-03-12T04:13:39;14.83;;;10.97;;
46318;SDS011;32042;50.916;2.926;2023-03-12T04:16:05;11.63;;;10.47;;
46318;SDS011;32042;50.916;2.926;2023-03-12T04:18:31;13.80;;;11.00;;
46318;SDS011;32042;50.916;2.926;2023-03-12T04:20:57;11.87;;;10.67;;
46318;SDS011;32042;50.916;2.926;2023-03-12T04:23:23;12.10;;;10.90;;
46318;SDS011;32042;50.916;2.926;2023-03-12T04:25:49;12.60;;;11.37;;
46318;SDS011;32042;50.916;2.926;2023-03-12T04:28:14;14.73;;;11.37;;
46318;SDS011;32042;50.916;2.926;2023-03-12T04:30:40;13.30;;;11.83;;
46318;SDS011;32042;50.916;2.926;2023-03-12T04:33:06;15.27;;;12.10;;
46318;SDS011;32042;50.916;2.926;2023-03-12T04:35:32;14.57;;;12.30;;
46318;SDS011;32042;50.916;2.926;2023-03-12T04:37:59;15.67;;;12.17;;
46318;SDS011;32042;50.916;2.926;2023-03-12T04:40:25;16.60;;;13.50;;
46318;SDS011;32042;50.916;2.926;2023-03-12T04:42:51;15.70;;;12.37;;
46318;SDS011;32042;50.916;2.926;2023-03-12T04:45:17;16.83;;;12.10;;
46318;SDS011;32042;50.916;2.926;2023-03-12T04:47:43;15.20;;;13.17;;
46318;SDS011;32042;50.916;2.926;2023-03-12T04:50:09;16.37;;;12.47;;
46318;SDS011;32042;50.916;2.926;2023-03-12T04:52:36;14.20;;;12.60;;
46318;SDS011;32042;50.916;2.926;2023-03-12T04:55:01;16.63;;;13.13;;
46318;SDS011;32042;50.916;2.926;2023-03-12T04:57:27;15.07;;;13.47;;
46318;SDS011;32042;50.916;2.926;2023-03-12T04:59:53;15.63;;;12.87;;
46318;SDS011;32042;50.916;2.926;2023-03-12T05:02:19;16.60;;;13.10;;
46318;SDS011;32042;50.916;2.926;2023-03-12T05:04:44;15.90;;;12.97;;
46318;SDS011;32042;50.916;2.926;2023-03-12T05:07:10;18.87;;;13.33;;
46318;SDS011;32042;50.916;2.926;2023-03-12T05:09:35;22.53;;;13.63;;
46318;SDS011;32042;50.916;2.926;2023-03-12T05:12:01;23.07;;;13.67;;
46318;SDS011;32042;50.916;2.926;2023-03-12T05:14:27;17.40;;;12.23;;
46318;SDS011;32042;50.916;2.926;2023-03-12T05:16:53;18.17;;;12.73;;
46318;SDS011;32042;50.916;2.926;2023-03-12T05:19:18;20.57;;;12.40;;
46318;SDS011;32042;50.916;2.926;2023-03-12T05:21:44;19.07;;;13.17;;
46318;SDS011;32042;50.916;2.926;2023-03-12T05:24:10;24.13;;;13.33;;
46318;SDS011;32042;50.916;2.926;2023-03-12T05:26:37;26.90;;;13.50;;
46318;SDS011;32042;50.916;2.926;2023-03-12T05:29:03;23.07;;;13.83;;
46318;SDS011;32042;50.916;2.926;2023-03-12T05:31:29;20.03;;;13.40;;
46318;SDS011;32042;50.916;2.926;2023-03-12T05:33:59;25.03;;;13.37;;
46318;SDS011;32042;50.916;2.926;2023-03-12T05:36:26;23.50;;;13.20;;
46318;SDS011;32042;50.916;2.926;2023-03-12T05:38:52;25.43;;;12.57;;
46318;SDS011;32042;50.916;2.926;2023-03-12T05:41:22;18.10;;;11.70;;
46318;SDS011;32042;50.916;2.926;2023-03-12T05:43:51;21.63;;;12.03;;
46318;SDS011;32042;50.916;2.926;2023-03-12T05:46:17;26.60;;;11.97;;
46318;SDS011;32042;50.916;2.926;2023-03-12T05:48:43;23.13;;;11.43;;
46318;SDS011;32042;50.916;2.926;2023-03-12T05:51:09;22.90;;;10.43;;
46318;SDS011;32042;50.916;2.926;2023-03-12T05:53:35;25.07;;;10.00;;
46318;SDS011;32042;50.916;2.926;2023-03-12T05:56:01;23.80;;;9.37;;
46318;SDS011;32042;50.916;2.926;2023-03-12T05:58:28;25.60;;;10.90;;
46318;SDS011;32042;50.916;2.926;2023-03-12T06:00:55;26.87;;;10.00;;
46318;SDS011;32042;50.916;2.926;2023-03-12T06:03:20;29.53;;;9.53;;
46318;SDS011;32042;50.916;2.926;2023-03-12T06:05:46;23.93;;;9.20;;
46318;SDS011;32042;50.916;2.926;2023-03-12T06:08:12;28.67;;;10.20;;
46318;SDS011;32042;50.916;2.926;2023-03-12T06:10:38;29.60;;;9.27;;
46318;SDS011;32042;50.916;2.926;2023-03-12T06:13:04;33.43;;;9.13;;
46318;SDS011;32042;50.916;2.926;2023-03-12T06:15:29;25.70;;;9.73;;
46318;SDS011;32042;50.916;2.926;2023-03-12T06:17:55;29.13;;;9.37;;
46318;SDS011;32042;50.916;2.926;2023-03-12T06:20:21;33.87;;;8.67;;
46318;SDS011;32042;50.916;2.926;2023-03-12T06:22:47;23.17;;;8.97;;
46318;SDS011;32042;50.916;2.926;2023-03-12T06:25:13;35.20;;;8.53;;
46318;SDS011;32042;50.916;2.926;2023-03-12T06:27:39;33.67;;;8.63;;
46318;SDS011;32042;50.916;2.926;2023-03-12T06:30:05;42.73;;;8.97;;
46318;SDS011;32042;50.916;2.926;2023-03-12T06:32:31;41.57;;;8.93;;
46318;SDS011;32042;50.916;2.926;2023-03-12T06:34:57;36.67;;;7.80;;
46318;SDS011;32042;50.916;2.926;2023-03-12T06:37:24;47.83;;;8.80;;
46318;SDS011;32042;50.916;2.926;2023-03-12T06:39:51;43.07;;;7.87;;
46318;SDS011;32042;50.916;2.926;2023-03-12T06:42:17;38.10;;;7.87;;
46318;SDS011;32042;50.916;2.926;2023-03-12T06:44:44;45.27;;;7.37;;
46318;SDS011;32042;50.916;2.926;2023-03-12T06:47:10;36.13;;;7.57;;
46318;SDS011;32042;50.916;2.926;2023-03-12T06:49:36;38.87;;;8.10;;
46318;SDS011;32042;50.916;2.926;2023-03-12T06:52:02;45.23;;;8.20;;
46318;SDS011;32042;50.916;2.926;2023-03-12T06:54:29;53.67;;;9.10;;
46318;SDS011;32042;50.916;2.926;2023-03-12T06:56:54;50.67;;;9.30;;
46318;SDS011;32042;50.916;2.926;2023-03-12T06:59:20;53.97;;;9.97;;
46318;SDS011;32042;50.916;2.926;2023-03-12T07:01:46;53.60;;;9.23;;
46318;SDS011;32042;50.916;2.926;2023-03-12T07:04:12;44.27;;;8.40;;
46318;SDS011;32042;50.916;2.926;2023-03-12T07:06:38;41.90;;;6.97;;
46318;SDS011;32042;50.916;2.926;2023-03-12T07:09:04;46.17;;;8.23;;
46318;SDS011;32042;50.916;2.926;2023-03-12T07:11:30;42.47;;;7.93;;
46318;SDS011;32042;50.916;2.926;2023-03-12T07:13:56;48.87;;;8.43;;
46318;SDS011;32042;50.916;2.926;2023-03-12T07:16:22;48.47;;;9.20;;
46318;SDS011;32042;50.916;2.926;2023-03-12T07:18:47;40.03;;;8.30;;
46318;SDS011;32042;50.916;2.926;2023-03-12T07:21:13;47.67;;;7.47;;
46318;SDS011;32042;50.916;2.926;2023-03-12T07:23:46;44.43;;;7.80;;
46318;SDS011;32042;50.916;2.926;2023-03-12T07:26:13;53.37;;;8.27;;
46318;SDS011;32042;50.916;2.926;2023-03-12T07:28:38;55.47;;;9.87;;
46318;SDS011;32042;50.916;2.926;2023-03-12T07:31:04;47.77;;;7.50;;
46318;SDS011;32042;50.916;2.926;2023-03-12T07:33:30;44.00;;;7.80;;
46318;SDS011;32042;50.916;2.926;2023-03-12T07:35:56;38.63;;;6.30;;
46318;SDS011;32042;50.916;2.926;2023-03-12T07:38:22;42.27;;;8.57;;
46318;SDS011;32042;50.916;2.926;2023-03-12T07:40:52;45.77;;;8.90;;
46318;SDS011;32042;50.916;2.926;2023-03-12T07:43:19;44.20;;;8.03;;
46318;SDS011;32042;50.916;2.926;2023-03-12T07:45:45;50.40;;;8.40;;
46318;SDS011;32042;50.916;2.926;2023-03-12T07:48:10;42.43;;;8.60;;
46318;SDS011;32042;50.916;2.926;2023-03-12T07:50:36;43.13;;;7.87;;
46318;SDS011;32042;50.916;2.926;2023-03-12T07:53:02;43.83;;;9.17;;
46318;SDS011;32042;50.916;2.926;2023-03-12T07:55:29;43.67;;;10.17;;
46318;SDS011;32042;50.916;2.926;2023-03-12T07:57:56;40.13;;;8.97;;
46318;SDS011;32042;50.916;2.926;2023-03-12T08:00:23;41.80;;;8.07;;
46318;SDS011;32042;50.916;2.926;2023-03-12T08:02:50;48.17;;;8.70;;
46318;SDS011;32042;50.916;2.926;2023-03-12T08:05:16;49.70;;;10.00;;
46318;SDS011;32042;50.916;2.926;2023-03-12T08:07:42;48.90;;;8.70;;
46318;SDS011;32042;50.916;2.926;2023-03-12T08:10:08;58.60;;;9.50;;
46318;SDS011;32042;50.916;2.926;2023-03-12T08:12:34;48.80;;;7.83;;
46318;SDS011;32042;50.916;2.926;2023-03-12T08:15:01;34.83;;;8.57;;
46318;SDS011;32042;50.916;2.926;2023-03-12T08:17:32;42.70;;;7.70;;
46318;SDS011;32042;50.916;2.926;2023-03-12T08:19:58;42.13;;;9.57;;
46318;SDS011;32042;50.916;2.926;2023-03-12T08:22:23;49.23;;;10.00;;
46318;SDS011;32042;50.916;2.926;2023-03-12T08:24:49;35.57;;;7.50;;
46318;SDS011;32042;50.916;2.926;2023-03-12T08:27:15;46.10;;;8.50;;
46318;SDS011;32042;50.916;2.926;2023-03-12T08:29:40;50.70;;;9.20;;
46318;SDS011;32042;50.916;2.926;2023-03-12T08:32:06;50.87;;;9.10;;
46318;SDS011;32042;50.916;2.926;2023-03-12T08:34:34;45.87;;;9.27;;
46318;SDS011;32042;50.916;2.926;2023-03-12T08:37:00;43.33;;;8.17;;
46318;SDS011;32042;50.916;2.926;2023-03-12T08:39:27;59.03;;;10.80;;
46318;SDS011;32042;50.916;2.926;2023-03-12T08:41:53;36.73;;;8.03;;
46318;SDS011;32042;50.916;2.926;2023-03-12T08:44:20;48.40;;;9.33;;
46318;SDS011;32042;50.916;2.926;2023-03-12T08:46:46;39.03;;;7.80;;
46318;SDS011;32042;50.916;2.926;2023-03-12T08:49:12;41.20;;;8.27;;
46318;SDS011;32042;50.916;2.926;2023-03-12T08:51:38;43.67;;;7.37;;
46318;SDS011;32042;50.916;2.926;2023-03-12T08:54:03;45.23;;;8.23;;
46318;SDS011;32042;50.916;2.926;2023-03-12T08:56:30;42.23;;;8.43;;
46318;SDS011;32042;50.916;2.926;2023-03-12T08:58:57;36.40;;;7.33;;
46318;SDS011;32042;50.916;2.926;2023-03-12T09:01:23;38.73;;;7.60;;
46318;SDS011;32042;50.916;2.926;2023-03-12T09:03:49;40.03;;;8.03;;
46318;SDS011;32042;50.916;2.926;2023-03-12T09:06:16;42.67;;;8.40;;
46318;SDS011;32042;50.916;2.926;2023-03-12T09:08:43;39.50;;;6.87;;
46318;SDS011;32042;50.916;2.926;2023-03-12T09:11:10;35.73;;;7.40;;
46318;SDS011;32042;50.916;2.926;2023-03-12T09:13:38;43.07;;;6.70;;
46318;SDS011;32042;50.916;2.926;2023-03-12T09:16:05;44.50;;;8.10;;
46318;SDS011;32042;50.916;2.926;2023-03-12T09:18:31;35.03;;;7.27;;
46318;SDS011;32042;50.916;2.926;2023-03-12T09:20:58;32.13;;;9.40;;
46318;SDS011;32042;50.916;2.926;2023-03-12T09:23:24;36.70;;;6.30;;
46318;SDS011;32042;50.916;2.926;2023-03-12T09:25:50;34.50;;;7.47;;
46318;SDS011;32042;50.916;2.926;2023-03-12T09:28:16;28.30;;;5.80;;
46318;SDS011;32042;50.916;2.926;2023-03-12T09:30:42;41.33;;;8.17;;
46318;SDS011;32042;50.916;2.926;2023-03-12T09:33:08;39.00;;;7.97;;
46318;SDS011;32042;50.916;2.926;2023-03-12T09:35:35;43.60;;;8.13;;
46318;SDS011;32042;50.916;2.926;2023-03-12T09:38:01;40.50;;;6.67;;
46318;SDS011;32042;50.916;2.926;2023-03-12T09:40:31;37.53;;;7.43;;
46318;SDS011;32042;50.916;2.926;2023-03-12T09:43:12;36.83;;;9.03;;
46318;SDS011;32042;50.916;2.926;2023-03-12T09:45:49;33.20;;;7.50;;
46318;SDS011;32042;50.916;2.926;2023-03-12T09:48:18;34.87;;;8.00;;
46318;SDS011;32042;50.916;2.926;2023-03-12T09:50:51;31.23;;;6.33;;
46318;SDS011;32042;50.916;2.926;2023-03-12T09:53:29;37.87;;;7.97;;
46318;SDS011;32042;50.916;2.926;2023-03-12T09:55:56;40.43;;;9.07;;
46318;SDS011;32042;50.916;2.926;2023-03-12T09:58:35;35.67;;;7.67;;
46318;SDS011;32042;50.916;2.926;2023-03-12T10:07:10;38.07;;;8.67;;
46318;SDS011;32042;50.916;2.926;2023-03-12T10:18:03;36.03;;;7.20;;
46318;SDS011;32042;50.916;2.926;2023-03-12T10:20:55;34.63;;;7.90;;
46318;SDS011;32042;50.916;2.926;2023-03-12T10:26:22;36.80;;;7.23;;
46318;SDS011;32042;50.916;2.926;2023-03-12T10:28:51;28.87;;;7.20;;
46318;SDS011;32042;50.916;2.926;2023-03-12T10:31:22;43.53;;;7.50;;
46318;SDS011;32042;50.916;2.926;2023-03-12T10:33:58;36.83;;;8.03;;
46318;SDS011;32042;50.916;2.926;2023-03-12T10:36:32;38.60;;;7.37;;
46318;SDS011;32042;50.916;2.926;2023-03-12T10:39:04;32.50;;;7.53;;
46318;SDS011;32042;50.916;2.926;2023-03-12T10:41:42;35.30;;;7.30;;
46318;SDS011;32042;50.916;2.926;2023-03-12T10:44:13;34.30;;;7.37;;
46318;SDS011;32042;50.916;2.926;2023-03-12T10:46:56;33.57;;;7.70;;
46318;SDS011;32042;50.916;2.926;2023-03-12T10:49:27;28.77;;;7.43;;
46318;SDS011;32042;50.916;2.926;2023-03-12T10:52:02;32.10;;;6.93;;
46318;SDS011;32042;50.916;2.926;2023-03-12T10:54:33;30.83;;;6.17;;
46318;SDS011;32042;50.916;2.926;2023-03-12T10:57:01;31.43;;;6.80;;
46318;SDS011;32042;50.916;2.926;2023-03-12T10:59:28;26.33;;;6.10;;
46318;SDS011;32042;50.916;2.926;2023-03-12T11:01:57;29.67;;;6.87;;
46318;SDS011;32042;50.916;2.926;2023-03-12T11:04:27;35.40;;;6.40;;
46318;SDS011;32042;50.916;2.926;2023-03-12T11:07:03;29.23;;;6.83;;
46318;SDS011;32042;50.916;2.926;2023-03-12T11:09:38;22.00;;;5.70;;
46318;SDS011;32042;50.916;2.926;2023-03-12T11:12:21;27.47;;;6.00;;
46318;SDS011;32042;50.916;2.926;2023-03-12T11:14:54;31.60;;;6.57;;
46318;SDS011;32042;50.916;2.926;2023-03-12T11:17:25;24.13;;;5.83;;
46318;SDS011;32042;50.916;2.926;2023-03-12T11:19:52;24.60;;;6.07;;
46318;SDS011;32042;50.916;2.926;2023-03-12T11:22:29;26.33;;;5.40;;
46318;SDS011;32042;50.916;2.926;2023-03-12T11:25:02;26.03;;;6.67;;
46318;SDS011;32042;50.916;2.926;2023-03-12T11:30:10;31.10;;;6.37;;
46318;SDS011;32042;50.916;2.926;2023-03-12T11:32:45;26.60;;;6.13;;
46318;SDS011;32042;50.916;2.926;2023-03-12T11:35:13;34.07;;;7.57;;
46318;SDS011;32042;50.916;2.926;2023-03-12T11:42:51;23.53;;;6.20;;
46318;SDS011;32042;50.916;2.926;2023-03-12T12:02:20;25.67;;;5.70;;
46318;SDS011;32042;50.916;2.926;2023-03-12T12:09:54;27.07;;;5.53;;
46318;SDS011;32042;50.916;2.926;2023-03-12T12:18:12;19.53;;;5.53;;
46318;SDS011;32042;50.916;2.926;2023-03-12T12:20:57;28.93;;;5.83;;
46318;SDS011;32042;50.916;2.926;2023-03-12T12:36:55;35.80;;;6.30;;
46318;SDS011;32042;50.916;2.926;2023-03-12T12:39:43;28.53;;;5.93;;
46318;SDS011;32042;50.916;2.926;2023-03-12T12:42:22;35.33;;;5.90;;
46318;SDS011;32042;50.916;2.926;2023-03-12T12:44:52;27.57;;;6.43;;
46318;SDS011;32042;50.916;2.926;2023-03-12T12:47:21;34.47;;;6.43;;
46318;SDS011;32042;50.916;2.926;2023-03-12T12:50:04;31.27;;;6.67;;
46318;SDS011;32042;50.916;2.926;2023-03-12T12:52:30;36.60;;;7.90;;
46318;SDS011;32042;50.916;2.926;2023-03-12T12:55:06;33.17;;;7.33;;
46318;SDS011;32042;50.916;2.926;2023-03-12T12:57:55;38.20;;;7.57;;
46318;SDS011;32042;50.916;2.926;2023-03-12T13:03:00;35.20;;;6.07;;
46318;SDS011;32042;50.916;2.926;2023-03-12T13:08:01;29.67;;;6.20;;
46318;SDS011;32042;50.916;2.926;2023-03-12T13:12:56;27.43;;;5.50;;
46318;SDS011;32042;50.916;2.926;2023-03-12T13:20:31;34.87;;;6.50;;
46318;SDS011;32042;50.916;2.926;2023-03-12T13:28:27;30.10;;;6.60;;
46318;SDS011;32042;50.916;2.926;2023-03-12T13:33:53;31.40;;;6.47;;
46318;SDS011;32042;50.916;2.926;2023-03-12T13:36:23;22.97;;;5.60;;
46318;SDS011;32042;50.916;2.926;2023-03-12T13:38:57;34.90;;;6.67;;
46318;SDS011;32042;50.916;2.926;2023-03-12T13:41:35;25.10;;;6.50;;
46318;SDS011;32042;50.916;2.926;2023-03-12T13:49:56;30.33;;;6.27;;
46318;SDS011;32042;50.916;2.926;2023-03-12T13:52:26;36.07;;;5.83;;
46318;SDS011;32042;50.916;2.926;2023-03-12T13:54:59;27.90;;;6.50;;
46318;SDS011;32042;50.916;2.926;2023-03-12T13:57:37;34.03;;;6.57;;
46318;SDS011;32042;50.916;2.926;2023-03-12T14:00:31;34.40;;;7.67;;
46318;SDS011;32042;50.916;2.926;2023-03-12T14:03:10;35.60;;;6.53;;
46318;SDS011;32042;50.916;2.926;2023-03-12T14:05:44;28.43;;;6.33;;
46318;SDS011;32042;50.916;2.926;2023-03-12T14:16:48;41.07;;;8.67;;
46318;SDS011;32042;50.916;2.926;2023-03-12T14:19:17;33.77;;;10.57;;
46318;SDS011;32042;50.916;2.926;2023-03-12T14:21:47;34.43;;;6.83;;
46318;SDS011;32042;50.916;2.926;2023-03-12T14:24:28;39.63;;;8.40;;
46318;SDS011;32042;50.916;2.926;2023-03-12T14:27:01;26.13;;;6.63;;
46318;SDS011;32042;50.916;2.926;2023-03-12T14:29:34;31.63;;;7.30;;
46318;SDS011;32042;50.916;2.926;2023-03-12T14:32:02;34.83;;;7.80;;
46318;SDS011;32042;50.916;2.926;2023-03-12T14:34:34;39.57;;;8.57;;
46318;SDS011;32042;50.916;2.926;2023-03-12T14:39:48;35.37;;;7.17;;
46318;SDS011;32042;50.916;2.926;2023-03-12T14:42:18;38.07;;;7.00;;
46318;SDS011;32042;50.916;2.926;2023-03-12T14:45:08;36.33;;;6.97;;
46318;SDS011;32042;50.916;2.926;2023-03-12T14:47:39;33.73;;;7.57;;
46318;SDS011;32042;50.916;2.926;2023-03-12T14:50:14;26.10;;;5.93;;
46318;SDS011;32042;50.916;2.926;2023-03-12T14:52:44;26.60;;;6.70;;
46318;SDS011;32042;50.916;2.926;2023-03-12T14:55:11;32.87;;;8.07;;
46318;SDS011;32042;50.916;2.926;2023-03-12T14:57:42;30.80;;;6.63;;
46318;SDS011;32042;50.916;2.926;2023-03-12T15:00:13;39.27;;;6.67;;
46318;SDS011;32042;50.916;2.926;2023-03-12T15:02:46;38.90;;;7.07;;
46318;SDS011;32042;50.916;2.926;2023-03-12T15:05:15;35.60;;;6.10;;
46318;SDS011;32042;50.916;2.926;2023-03-12T15:07:42;31.83;;;6.10;;
46318;SDS011;32042;50.916;2.926;2023-03-12T15:10:23;31.70;;;6.53;;
46318;SDS011;32042;50.916;2.926;2023-03-12T15:12:51;26.17;;;6.67;;
46318;SDS011;32042;50.916;2.926;2023-03-12T15:18:15;23.33;;;6.00;;
46318;SDS011;32042;50.916;2.926;2023-03-12T15:20:48;34.70;;;7.27;;
46318;SDS011;32042;50.916;2.926;2023-03-12T15:23:16;29.73;;;6.17;;
46318;SDS011;32042;50.916;2.926;2023-03-12T15:25:43;29.17;;;5.60;;
46318;SDS011;32042;50.916;2.926;2023-03-12T15:30:35;23.83;;;4.73;;
46318;SDS011;32042;50.916;2.926;2023-03-12T15:33:07;25.83;;;4.93;;
46318;SDS011;32042;50.916;2.926;2023-03-12T15:38:44;17.70;;;4.93;;
46318;SDS011;32042;50.916;2.926;2023-03-12T15:41:20;20.77;;;3.67;;
46318;SDS011;32042;50.916;2.926;2023-03-12T15:44:25;16.10;;;4.30;;
46318;SDS011;32042;50.916;2.926;2023-03-12T15:47:09;22.27;;;4.97;;
46318;SDS011;32042;50.916;2.926;2023-03-12T15:49:38;25.03;;;5.07;;
46318;SDS011;32042;50.916;2.926;2023-03-12T15:54:57;23.97;;;4.33;;
46318;SDS011;32042;50.916;2.926;2023-03-12T15:57:45;29.80;;;5.87;;
46318;SDS011;32042;50.916;2.926;2023-03-12T16:00:23;26.63;;;4.10;;
46318;SDS011;32042;50.916;2.926;2023-03-12T16:05:34;19.00;;;4.73;;
46318;SDS011;32042;50.916;2.926;2023-03-12T16:08:21;20.47;;;5.27;;
46318;SDS011;32042;50.916;2.926;2023-03-12T16:10:51;30.20;;;5.30;;
46318;SDS011;32042;50.916;2.926;2023-03-12T16:13:20;25.13;;;5.90;;
46318;SDS011;32042;50.916;2.926;2023-03-12T16:15:52;30.70;;;6.27;;
46318;SDS011;32042;50.916;2.926;2023-03-12T16:18:19;34.80;;;6.00;;
46318;SDS011;32042;50.916;2.926;2023-03-12T16:20:46;19.13;;;4.63;;
46318;SDS011;32042;50.916;2.926;2023-03-12T16:23:14;19.30;;;4.70;;
46318;SDS011;32042;50.916;2.926;2023-03-12T16:25:41;19.77;;;4.67;;
46318;SDS011;32042;50.916;2.926;2023-03-12T16:28:09;25.43;;;4.63;;
46318;SDS011;32042;50.916;2.926;2023-03-12T16:30:38;13.93;;;3.90;;
46318;SDS011;32042;50.916;2.926;2023-03-12T16:33:04;27.00;;;5.60;;
46318;SDS011;32042;50.916;2.926;2023-03-12T16:35:31;25.07;;;5.10;;
46318;SDS011;32042;50.916;2.926;2023-03-12T16:37:57;17.57;;;3.87;;
46318;SDS011;32042;50.916;2.926;2023-03-12T16:40:27;17.83;;;3.87;;
46318;SDS011;32042;50.916;2.926;2023-03-12T16:42:55;21.73;;;4.73;;
46318;SDS011;32042;50.916;2.926;2023-03-12T16:45:26;27.20;;;5.80;;
46318;SDS011;32042;50.916;2.926;2023-03-12T16:47:53;21.63;;;4.97;;
46318;SDS011;32042;50.916;2.926;2023-03-12T16:50:23;18.37;;;4.53;;
46318;SDS011;32042;50.916;2.926;2023-03-12T16:52:49;17.53;;;4.17;;
46318;SDS011;32042;50.916;2.926;2023-03-12T16:55:16;17.33;;;3.97;;